Brisbane, Queensland, Australia, Latitude 27°S 23' 52", Longitude 152° E 55' 35", Elevation 76 m

At: Sat 24 Aug 2019 6:05:03 am, Temperature: 7.7 °C, Humidity: 81 %, Wind speed: 0 km/h, Wind Gust: 0 km/h, Rain today: 0.0 mm, MSLP: 1025.16 hPa

New beta website from 10 years of weather station data. Please contact us if you find issues or like to provide feedback.

Recent Observations

This page presents the weather data from the last 72 hours at 30 minute intervals.

Last updated at 6:05:03 am AEST on Sat 24 August 2019.

Note there are currently issues with this page.

Last 24 hours
Date/Time(AEST) Temp. ( °C) Dew Point ( °C) Relative Humidity (%) Appararent Temp. ( °C) Wind Direction Wind Speed (kph) Wind Gust (kph) Wind Speed (kts) Wind Gust (kts) MSL Pressure (hPa) Rain since midnight (mm)
24/08 6:05 am 7.7 4.6 81 6.5 CALM 0 0 0 0 1025.16 0.0
24/08 5:35 am 7.6 4.1 79 6.3 CALM 0 0 0 0 1024.79 0.0
24/08 5:05 am 7.7 4.1 78 6.4 CALM 0 0 0 0 1024.55 0.0
24/08 4:35 am 8.0 4.4 78 6.8 CALM 0 0 0 0 1024.45 0.0
24/08 4:05 am 8.3 4.7 78 7.1 CALM 0 0 0 0 1024.28 0.0
24/08 3:35 am 8.3 4.5 77 7.1 CALM 0 0 0 0 1024.18 0.0
24/08 3:05 am 8.6 5.0 78 6.1 WNW 2 4 1 2 1024.21 0.0
24/08 2:35 am 8.7 4.9 77 6.2 WNW 2 2 1 1 1024.01 0.0
24/08 2:05 am 8.8 4.8 76 7.6 CALM 0 2 0 1 1024.21 0.0
24/08 1:35 am 8.9 4.7 75 7.7 CALM 0 0 0 0 1024.08 0.0
24/08 1:05 am 9.3 4.9 74 8.2 CALM 0 0 0 0 1024.21 0.0
24/08 12:35 am 9.7 5.1 73 8.6 CALM 0 2 0 1 1024.42 0.0
24/08 12:05 am 10.1 5.5 73 9.1 CALM 0 0 0 0 1024.79 0.0
23/08 11:35 pm 10.5 5.7 72 9.5 CALM 0 0 0 0 1024.96 0.0
23/08 11:05 pm 10.9 5.9 71 10 CALM 0 4 0 2 1025.20 0.0
23/08 10:35 pm 11.2 5.9 70 10.3 CALM 0 2 0 1 1025.47 0.0
23/08 10:05 pm 11.8 6.3 69 10.9 CALM 0 2 0 1 1025.67 0.0
23/08 9:35 pm 12.1 6.4 68 11.3 CALM 0 4 0 2 1025.64 0.0
23/08 9:05 pm 12.6 6.6 67 11.8 CALM 0 2 0 1 1025.70 0.0
23/08 8:35 pm 13.2 6.6 64 12.4 CALM 0 0 0 0 1025.50 0.0
23/08 8:05 pm 13.9 6.8 62 13.1 CALM 0 0 0 0 1025.53 0.0
23/08 7:35 pm 14.7 7.0 60 13.3 NE 1 4 1 2 1025.23 0.0
23/08 7:05 pm 15.4 7.2 58 14.7 NE 0 4 0 2 1024.99 0.0
23/08 6:35 pm 16.4 7.4 55 15.8 ESE 0 2 0 1 1024.65 0.0
23/08 6:05 pm 17.1 7.4 53 14.4 E 3 12 2 6 1024.15 0.0
23/08 5:35 pm 17.9 7.6 51 13.1 NE 6 12 3 6 1023.87 0.0
23/08 5:05 pm 18.9 7.0 46 13.3 ENE 7 15 4 8 1023.43 0.0
23/08 4:35 pm 19.9 6.9 43 12.9 ENE 9 14 5 8 1022.99 0.0
23/08 4:05 pm 20.9 6.4 39 15.9 ENE 6 14 3 8 1022.72 0.0
23/08 3:35 pm 20.9 5.3 36 12.8 E 10 19 5 10 1022.55 0.0
23/08 3:05 pm 23.2 2.1 25 15.2 SSE 6 8 3 4 1022.08 0.0
23/08 2:35 pm 23.7 2.5 25 17.9 SW 6 8 3 4 1022.08 0.0
23/08 2:05 pm 22.6 2.7 27 15.4 ENE 8 23 4 12 1022.01 0.0
23/08 1:35 pm 23.2 2.6 26 16 NNE 8 17 4 9 1022.05 0.0
23/08 1:05 pm 22.3 2.9 28 15.9 E 7 17 4 9 1022.59 0.0
23/08 12:35 pm 22.7 2.2 26 16.9 ESE 6 17 3 9 1023.10 0.0
23/08 12:05 pm 22.7 1.6 25 15.4 SSW 8 17 4 9 1023.33 0.0
23/08 11:35 am 22.5 2.6 27 16.7 SW 6 19 3 10 1023.87 0.0
23/08 11:05 am 22.1 2.2 27 14.2 S 9 15 5 8 1024.25 0.0
23/08 10:35 am 21.3 2.6 29 14.1 SW 8 15 4 8 1024.45 0.0
23/08 10:05 am 20.3 2.6 31 11.7 SSW 10 21 5 11 1024.45 0.0
23/08 9:35 am 19.4 2.7 33 10.1 S 11 19 6 10 1024.59 0.0
23/08 9:05 am 17.7 2.8 37 8.5 SSW 11 21 6 11 1024.45 0.0
23/08 8:35 am 16.1 3.5 43 7.7 SSW 10 17 5 9 1024.21 0.0
23/08 8:05 am 14.9 4.0 48 6.6 SSW 10 17 5 9 1023.98 0.0
23/08 7:35 am 13.0 5.2 59 7.7 SSW 6 12 3 6 1023.54 0.0
23/08 7:05 am 10.1 5.9 75 9.2 CALM 0 4 0 2 1023.03 0.0
23/08 6:35 am 9.7 5.6 76 8.7 CALM 0 0 0 0 1022.52 0.0
24 to 48 hours ago
Date/Time(AEST) Temp. °C Dew Point °C Relative Humidity % Appararent Temp. °C Wind Direction Wind Speed (kph) Wind Gust (kph) Wind Speed (kts) Wind Gust (kts) MSL Pressure (hPa) Rain since midnight (mm)
23/08 6:05 am 9.8 5.7 76 8.8 CALM 0 0 0 0 1021.74 0.0
23/08 5:35 am 10.1 5.9 75 9.2 CALM 0 0 0 0 1021.10 0.0
23/08 5:05 am 10.4 6.2 75 9.5 CALM 0 0 0 0 1020.66 0.0
23/08 4:35 am 10.7 6.3 74 9.8 CALM 0 0 0 0 1020.25 0.0
23/08 4:05 am 11.2 6.6 73 10.4 CALM 0 0 0 0 1019.78 0.0
23/08 3:35 am 11.8 6.7 71 11 CALM 0 0 0 0 1019.61 0.0
23/08 3:05 am 12.6 7.0 69 11.9 CALM 0 0 0 0 1019.51 0.0
23/08 2:35 am 13.5 7.5 67 12.9 CALM 0 0 0 0 1019.51 0.0
23/08 2:05 am 14.2 8.0 66 13.7 CALM 0 0 0 0 1019.34 0.0
23/08 1:35 am 14.8 8.1 64 14.3 S 0 6 0 3 1019.34 0.0
23/08 1:05 am 15.3 8.3 63 12.8 SSE 3 10 2 5 1019.17 0.0
23/08 12:35 am 15.8 8.6 62 13.4 S 3 4 2 2 1019.24 0.0
23/08 12:05 am 15.9 8.6 62 12.1 SSE 5 14 3 8 1019.10 0.0
22/08 11:35 pm 16.1 8.6 61 13.7 S 3 12 2 6 1019.13 0.0
22/08 11:05 pm 16.7 8.9 60 13.7 SSE 4 8 2 4 1019.03 0.0
22/08 10:35 pm 17.4 9.3 59 11.7 SSE 8 10 4 5 1018.83 0.0
22/08 10:05 pm 17.8 9.2 57 14.8 ESE 4 15 2 8 1018.39 0.0
22/08 9:35 pm 18.3 4.1 39 14.9 S 3 4 2 2 1017.98 0.0
22/08 9:05 pm 18.7 0.3 29 12.6 S 6 15 3 8 1017.58 0.0
22/08 8:35 pm 19.3 -0.2 27 11.7 WSW 8 17 4 9 1016.15 0.0
22/08 8:05 pm 19.6 -0.4 26 11.3 WSW 9 17 5 9 1015.75 0.0
22/08 7:35 pm 19.9 -0.2 26 11.6 W 9 17 5 9 1015.31 0.0
22/08 7:05 pm 20.3 -0.4 25 12 W 9 23 5 12 1014.56 0.0
22/08 6:35 pm 20.8 -0.5 24 11 W 11 21 6 11 1013.85 0.0
22/08 6:05 pm 21.1 -0.3 24 10.7 W 12 21 6 11 1013.00 0.0
22/08 5:35 pm 21.7 -0.9 22 9.1 W 15 23 8 12 1012.29 0.0
22/08 5:05 pm 22.7 -0.8 21 12.2 W 12 23 6 12 1011.92 0.0
22/08 4:35 pm 23.5 -0.8 20 10.2 W 16 31 9 17 1011.38 0.0
22/08 4:05 pm 24.0 -1.1 19 10.7 W 16 21 9 11 1011.11 0.0
22/08 3:35 pm 24.3 -2.3 17 5.9 W 23 39 12 21 1010.77 0.0
22/08 3:05 pm 25.2 -1.6 17 11.1 W 18 39 10 21 1010.43 0.0
22/08 2:35 pm 25.1 -1.7 17 10.3 WSW 18 39 10 21 1010.43 0.0
22/08 2:05 pm 25.4 -1.5 17 12.7 WNW 15 33 8 18 1010.63 0.0
22/08 1:35 pm 25.8 -2.0 16 10.2 W 19 29 10 16 1011.14 0.0
22/08 1:05 pm 25.3 -3.2 15 11 W 17 29 9 16 1011.72 0.0
22/08 12:35 pm 24.7 -2.0 17 9.8 WNW 18 33 10 18 1011.99 0.0
22/08 12:05 pm 24.3 -0.8 19 8.9 W 19 39 10 21 1012.67 0.0
22/08 11:35 am 23.4 -0.2 21 7.4 WSW 20 29 11 16 1013.34 0.0
22/08 11:05 am 23.1 -0.4 21 5.7 W 22 29 12 16 1013.95 0.0
22/08 10:35 am 22.3 1.8 26 3.1 WNW 25 52 13 28 1014.32 0.0
22/08 10:05 am 21.3 1.0 26 5.5 WNW 20 39 11 21 1014.53 0.0
22/08 9:35 am 20.2 1.1 28 3.7 W 21 35 11 19 1014.97 0.0
22/08 9:05 am 19.9 1.4 29 13.9 W 6 21 3 11 1015.17 0.0
22/08 8:35 am 18.3 1.3 32 10.2 WSW 9 29 5 16 1015.54 0.0
22/08 8:05 am 17.2 2.0 36 9.2 WNW 9 17 5 9 1015.58 0.0
22/08 7:35 am 16.1 1.8 38 5.3 WNW 13 23 7 12 1015.75 0.0
22/08 7:05 am 15.2 1.6 40 5.8 W 11 21 6 11 1015.31 0.0
22/08 6:35 am 14.6 1.1 40 4.4 W 12 17 6 9 1015.14 0.0
48 to 72 hours ago
Date/Time(AEST) Temp. °C Dew Point °C Relative Humidity % Appararent Temp. °C Wind Direction Wind Speed (kph) Wind Gust (kph) Wind Speed (kts) Wind Gust (kts) MSL Pressure (hPa) Rain since midnight (mm)
22/08 6:05 am 14.3 1.2 41 6.2 W 9 19 5 10 1015.31 0.0
22/08 5:35 am 14.5 1.0 40 5 W 11 15 6 8 1015.17 0.0
22/08 5:05 am 14.6 1.1 40 4.4 WNW 12 19 6 10 1015.07 0.0
22/08 4:35 am 14.7 0.9 39 6.5 W 9 15 5 8 1015.24 0.0
22/08 4:05 am 14.9 0.7 38 6.7 W 9 15 5 8 1015.27 0.0
22/08 3:35 am 14.9 0.7 38 3.2 WNW 14 23 8 12 1015.34 0.0
22/08 3:05 am 15.1 0.5 37 7.6 W 8 17 4 9 1015.24 0.0
22/08 2:35 am 15.1 0.5 37 9 WNW 6 15 3 8 1015.82 0.0
22/08 2:05 am 15.4 0.0 35 8.5 WNW 7 17 4 9 1015.78 0.0
22/08 1:35 am 15.8 0.3 35 10.4 WNW 5 15 3 8 1015.78 0.0
22/08 1:05 am 15.6 0.2 35 10.1 WNW 5 14 3 8 1015.92 0.0
22/08 12:35 am 16.4 -0.3 32 11.6 NW 4 8 2 4 1016.02 0.0
22/08 12:05 am 17.1 -0.6 30 7.3 W 11 23 6 12 1016.22 0.0
21/08 11:35 pm 17.2 -0.5 30 6.7 WNW 12 25 6 13 1016.02 0.0
21/08 11:05 pm 17.8 -1.0 28 8 W 11 31 6 17 1016.22 0.0
21/08 10:35 pm 18.1 -0.7 28 7.6 W 12 19 6 10 1016.56 0.0
21/08 10:05 pm 18.4 -0.9 27 5.8 W 15 25 8 13 1016.39 0.0
21/08 9:35 pm 18.8 -0.6 27 4.8 W 17 25 9 13 1016.63 0.0
21/08 9:05 pm 19.1 -0.9 26 3 WNW 20 35 11 19 1016.80 0.0
21/08 8:35 pm 19.4 -1.1 25 5.4 W 17 33 9 18 1017.03 0.0
21/08 8:05 pm 19.8 -1.9 23 5.6 WNW 17 31 9 17 1017.37 0.0
21/08 7:35 pm 20.2 -2.9 21 8.7 WNW 13 27 7 15 1016.76 0.0
21/08 7:05 pm 20.8 -3.0 20 9.3 W 13 25 7 13 1016.63 0.0
21/08 6:35 pm 20.9 -3.6 19 10.7 W 11 29 6 16 1016.02 0.0
21/08 6:05 pm 20.9 -2.9 20 4.5 W 20 25 11 13 1015.48 0.0
21/08 5:35 pm 21.6 -3.8 18 10.7 WNW 12 21 6 11 1015.31 0.0
21/08 5:05 pm 22.7 -5.3 15 11 W 13 21 7 11 1015.21 0.0
21/08 4:35 pm 23.6 -6.5 13 12.4 W 12 27 6 15 1014.97 0.0
21/08 4:05 pm 24.3 -5.9 13 13.9 W 11 23 6 12 1014.80 0.0
21/08 3:35 pm 24.9 -6.5 12 10.9 W 16 27 9 15 1014.90 0.0
21/08 3:05 pm 26.1 -5.5 12 17.8 NW 12 35 6 19 1015.24 0.0
21/08 2:35 pm 25.8 -4.7 13 14.8 W 12 35 6 19 1015.24 0.0
21/08 2:05 pm 25.6 -3.9 14 13.3 WNW 14 35 8 19 1015.65 0.0
21/08 1:35 pm 25.3 -4.1 14 13 NW 14 27 8 15 1016.22 0.0
21/08 1:05 pm 24.8 -3.6 15 10.4 W 17 27 9 15 1016.63 0.0
21/08 12:35 pm 24.1 -2.5 17 10.6 W 16 33 9 18 1017.00 0.0
21/08 12:05 pm 23.3 -3.9 16 7.5 W 19 29 10 16 1017.91 0.0
21/08 11:35 am 22.5 -3.8 17 8.8 W 16 37 9 20 1018.39 0.0
21/08 11:05 am 21.6 -4.5 17 5 WNW 20 35 11 19 1018.83 0.0
21/08 10:35 am 21.1 -4.2 18 5.3 W 19 25 10 13 1019.20 0.0
21/08 10:05 am 20.4 -4.0 19 6.7 WNW 16 29 9 16 1019.84 0.0
21/08 9:35 am 19.0 -3.8 21 8.1 NW 12 21 6 11 1019.88 0.0
21/08 9:05 am 17.9 -4.1 22 7.7 NW 11 17 6 9 1020.22 0.0
21/08 8:35 am 16.4 -3.7 25 7.6 WNW 9 15 5 8 1020.59 0.0
21/08 8:05 am 15.1 -4.3 26 6.3 W 9 17 5 9 1020.42 0.0
21/08 7:35 am 13.7 -4.0 29 2.1 WNW 13 23 7 12 1020.08 0.0
21/08 7:05 am 12.9 -4.7 29 1.9 W 12 25 6 13 1020.01 0.0
21/08 6:35 am 11.9 -4.3 32 5.9 W 5 14 3 8 1020.01 0.0